createdAt,value
2022-10-23T00:04:07.284Z,222.10
2022-10-23T00:14:10.714Z,221.50
2022-10-23T00:24:15.759Z,215.13
2022-10-23T00:34:19.534Z,214.10
2022-10-23T00:45:22.394Z,214.47
2022-10-23T00:55:28.521Z,217.20
2022-10-23T01:05:40.982Z,212.13
2022-10-23T01:15:50.715Z,211.80
2022-10-23T01:26:32.604Z,215.83
2022-10-23T01:36:40.954Z,211.93
2022-10-23T01:46:46.523Z,221.07
2022-10-23T01:56:53.090Z,218.43
2022-10-23T02:07:01.397Z,218.03
2022-10-23T02:17:16.009Z,215.27
2022-10-23T02:27:25.566Z,217.40
2022-10-23T02:37:35.377Z,212.37
2022-10-23T02:47:51.943Z,212.80
2022-10-23T02:58:04.379Z,216.20
2022-10-23T03:08:10.811Z,212.13
2022-10-23T03:18:15.501Z,216.90
2022-10-23T03:28:23.963Z,213.33
2022-10-23T03:38:28.676Z,211.37
2022-10-23T03:48:33.038Z,215.47
2022-10-23T03:58:37.774Z,220.10
2022-10-23T04:08:41.043Z,214.23
2022-10-23T04:18:52.879Z,213.07
2022-10-23T04:28:56.221Z,212.43
2022-10-23T04:39:01.081Z,215.70
2022-10-23T04:49:04.640Z,209.03
2022-10-23T04:59:24.417Z,219.77
2022-10-23T05:09:27.896Z,274.30
2022-10-23T05:19:56.778Z,300.83
2022-10-23T05:30:00.265Z,215.30
2022-10-23T05:40:10.324Z,209.27
2022-10-23T05:50:16.204Z,211.30
2022-10-23T06:00:49.475Z,212.97
2022-10-23T06:11:12.960Z,214.40
2022-10-23T06:21:18.674Z,217.03
2022-10-23T06:31:26.875Z,214.97
2022-10-23T06:41:33.030Z,219.83
2022-10-23T06:51:36.371Z,224.00
2022-10-23T07:01:42.801Z,220.47
2022-10-23T07:11:47.454Z,217.63
2022-10-23T07:21:52.643Z,217.77
2022-10-23T07:32:11.299Z,220.60
2022-10-23T07:42:47.805Z,226.57
2022-10-23T07:52:52.311Z,224.70
2022-10-23T08:02:58.354Z,225.80
2022-10-23T08:13:02.965Z,222.90
2022-10-23T08:23:34.318Z,226.47
2022-10-23T08:33:38.847Z,218.77
2022-10-23T08:43:49.083Z,214.30
2022-10-23T08:54:12.791Z,212.50
2022-10-23T09:04:18.451Z,208.57
2022-10-23T09:14:43.455Z,208.55
2022-10-23T09:24:52.969Z,200.55
2022-10-23T09:34:57.404Z,201.77
2022-10-23T09:45:02.254Z,201.43
2022-10-23T09:55:23.273Z,193.10
2022-10-23T10:05:31.702Z,199.27
2022-10-23T10:15:46.993Z,188.48
2022-10-23T10:26:01.956Z,187.18
2022-10-23T10:36:21.186Z,185.68
2022-10-23T10:46:35.366Z,194.43
2022-10-23T10:56:43.601Z,188.18
2022-10-23T11:06:53.939Z,178.20
2022-10-23T11:17:05.865Z,178.32
2022-10-23T11:27:29.438Z,184.63
2022-10-23T11:37:33.582Z,183.35
2022-10-23T11:47:40.830Z,178.75
2022-10-23T11:57:45.422Z,188.70
2022-10-23T12:07:56.768Z,181.45
2022-10-23T12:18:15.227Z,187.88
2022-10-23T12:28:31.939Z,198.13
2022-10-23T12:38:45.815Z,190.88
2022-10-23T12:48:53.721Z,197.35
2022-10-23T12:59:00.706Z,208.55
2022-10-23T13:09:06.743Z,198.38
2022-10-23T13:19:26.997Z,193.80
2022-10-23T13:29:35.093Z,195.50
2022-10-23T13:39:38.672Z,201.90
2022-10-23T13:49:43.608Z,215.82
2022-10-23T13:59:47.120Z,210.68
2022-10-23T14:09:52.022Z,216.57
2022-10-23T14:19:56.084Z,219.95
2022-10-23T14:30:00.857Z,218.27
2022-10-23T14:40:05.467Z,221.67
2022-10-23T14:50:14.370Z,207.87
2022-10-23T15:00:18.339Z,210.60
2022-10-23T15:10:23.399Z,212.30
2022-10-23T15:20:26.838Z,211.10
2022-10-23T15:30:31.697Z,227.77
2022-10-23T15:40:35.190Z,212.07
2022-10-23T15:50:39.993Z,213.20
2022-10-23T16:00:43.524Z,218.13
2022-10-23T16:10:48.415Z,215.10
2022-10-23T16:20:55.162Z,215.10
2022-10-23T16:31:00.724Z,214.97
2022-10-23T16:41:07.075Z,223.27
2022-10-23T16:51:21.345Z,214.60
2022-10-23T17:01:28.499Z,231.43
2022-10-23T17:11:35.888Z,215.33
2022-10-23T17:21:42.295Z,204.90
2022-10-23T17:31:49.749Z,209.77
2022-10-23T17:41:53.711Z,210.57
2022-10-23T17:51:59.273Z,211.30
2022-10-23T18:02:03.247Z,215.60
2022-10-23T18:12:08.244Z,210.80
2022-10-23T18:22:11.614Z,210.30
2022-10-23T18:32:17.608Z,216.77
2022-10-23T18:42:21.099Z,224.70
2022-10-23T18:52:25.722Z,226.63
2022-10-23T19:02:31.532Z,226.90
2022-10-23T19:12:36.553Z,227.77
2022-10-23T19:22:43.142Z,220.83
2022-10-23T19:32:49.438Z,216.90
2022-10-23T19:42:54.276Z,224.83
2022-10-23T19:52:58.879Z,223.13
2022-10-23T20:03:02.167Z,222.90
2022-10-23T20:13:19.292Z,218.47
2022-10-23T20:23:23.600Z,290.30
2022-10-23T20:33:28.344Z,217.57
2022-10-23T20:43:33.718Z,251.77
2022-10-23T20:53:39.467Z,220.77
2022-10-23T21:03:42.778Z,221.40
2022-10-23T21:13:48.365Z,213.93
2022-10-23T21:23:56.164Z,210.40
2022-10-23T21:34:00.933Z,214.33
2022-10-23T21:44:06.932Z,213.00
2022-10-23T21:54:14.850Z,213.03
2022-10-23T22:04:20.311Z,214.20
2022-10-23T22:14:25.232Z,211.07
2022-10-23T22:24:28.602Z,212.97
2022-10-23T22:34:51.904Z,205.10
2022-10-23T22:44:55.814Z,206.17
2022-10-23T22:55:00.394Z,207.77
2022-10-23T23:05:03.692Z,207.87
2022-10-23T23:15:10.386Z,208.17
2022-10-23T23:25:13.642Z,205.73
2022-10-23T23:35:18.522Z,204.60
2022-10-23T23:45:21.733Z,202.90
2022-10-23T23:55:26.326Z,208.20
